createdAt,value
2017-12-16T00:00:00.787Z,4.63
2017-12-16T00:02:27.638Z,5.03
2017-12-16T00:04:54.461Z,5.03
2017-12-16T00:07:21.232Z,5.10
2017-12-16T00:09:48.008Z,6.00
2017-12-16T00:12:14.769Z,6.37
2017-12-16T00:14:42.486Z,6.43
2017-12-16T00:17:09.367Z,10.00
2017-12-16T00:19:36.159Z,9.13
2017-12-16T00:22:02.975Z,10.80
2017-12-16T00:24:29.804Z,10.80
2017-12-16T00:26:56.627Z,10.47
2017-12-16T00:29:23.626Z,9.90
2017-12-16T00:31:57.925Z,10.50
2017-12-16T00:34:24.732Z,10.57
2017-12-16T00:36:51.546Z,9.60
2017-12-16T00:39:18.386Z,10.87
2017-12-16T00:41:45.290Z,9.40
2017-12-16T00:44:12.133Z,10.50
2017-12-16T00:46:39.022Z,9.90
2017-12-16T00:49:05.833Z,8.70
2017-12-16T00:51:32.680Z,8.90
2017-12-16T00:53:59.464Z,11.07
2017-12-16T00:56:27.273Z,8.53
2017-12-16T00:58:54.138Z,8.57
2017-12-16T01:01:21.046Z,9.03
2017-12-16T01:03:47.919Z,9.07
2017-12-16T01:06:14.722Z,8.57
2017-12-16T01:08:41.603Z,8.77
2017-12-16T01:11:08.406Z,8.20
2017-12-16T01:13:35.192Z,7.83
2017-12-16T01:16:02.030Z,8.70
2017-12-16T01:18:28.844Z,9.27
2017-12-16T01:20:55.598Z,8.93
2017-12-16T01:23:22.375Z,8.67
2017-12-16T01:25:49.152Z,9.00
2017-12-16T01:28:16.061Z,9.13
2017-12-16T01:30:43.081Z,8.20
2017-12-16T01:33:09.861Z,9.00
2017-12-16T01:35:42.385Z,8.63
2017-12-16T01:38:15.096Z,9.07
2017-12-16T01:40:41.888Z,8.80
2017-12-16T01:43:08.687Z,8.43
2017-12-16T01:45:35.434Z,8.70
2017-12-16T01:48:02.235Z,9.83
2017-12-16T01:50:29.048Z,9.07
2017-12-16T01:52:55.916Z,9.20
2017-12-16T01:55:22.767Z,9.23
2017-12-16T01:57:49.512Z,9.17
2017-12-16T02:00:16.280Z,8.83
2017-12-16T02:02:43.088Z,8.43
2017-12-16T02:05:09.862Z,8.90
2017-12-16T02:07:36.641Z,8.27
2017-12-16T02:10:03.414Z,8.07
2017-12-16T02:12:30.367Z,8.17
2017-12-16T02:14:57.096Z,6.90
2017-12-16T02:17:23.922Z,8.47
2017-12-16T02:19:50.754Z,7.77
2017-12-16T02:22:19.330Z,6.67
2017-12-16T02:24:46.119Z,7.63
2017-12-16T02:27:12.874Z,8.10
2017-12-16T02:29:39.665Z,7.30
2017-12-16T02:32:06.438Z,8.30
2017-12-16T02:34:33.221Z,8.00
2017-12-16T02:37:00.041Z,8.60
2017-12-16T02:39:27.019Z,9.67
2017-12-16T02:41:54.535Z,9.47
2017-12-16T02:44:21.429Z,8.83
2017-12-16T02:46:48.354Z,9.63
2017-12-16T02:49:15.184Z,9.20
2017-12-16T02:51:41.993Z,7.97
2017-12-16T02:54:09.619Z,8.10
2017-12-16T02:56:36.438Z,8.07
2017-12-16T02:59:03.261Z,8.20
2017-12-16T03:01:30.041Z,7.93
2017-12-16T03:03:56.837Z,6.70
2017-12-16T03:06:23.659Z,8.07
2017-12-16T03:08:50.491Z,7.10
2017-12-16T03:11:17.269Z,6.60
2017-12-16T03:13:44.147Z,7.23
2017-12-16T03:16:10.926Z,7.00
2017-12-16T03:18:37.722Z,6.37
2017-12-16T03:21:04.542Z,7.00
2017-12-16T03:23:31.314Z,6.50
2017-12-16T03:25:58.111Z,6.50
2017-12-16T03:28:24.854Z,5.97
2017-12-16T03:30:51.643Z,5.57
2017-12-16T03:33:18.415Z,5.20
2017-12-16T03:35:45.259Z,6.13
2017-12-16T03:38:12.006Z,5.30
2017-12-16T03:40:39.097Z,4.83
2017-12-16T03:43:05.888Z,5.40
2017-12-16T03:45:32.651Z,4.83
2017-12-16T03:47:59.415Z,5.63
2017-12-16T03:50:26.278Z,6.17
2017-12-16T03:52:53.067Z,5.80
2017-12-16T03:55:19.816Z,5.90
2017-12-16T03:57:46.653Z,6.20
2017-12-16T04:00:13.450Z,6.63
2017-12-16T04:02:40.196Z,5.70
2017-12-16T04:05:06.984Z,6.30
2017-12-16T04:07:33.772Z,5.70
2017-12-16T04:10:00.558Z,5.60
2017-12-16T04:12:27.315Z,5.77
2017-12-16T04:14:54.042Z,7.10
2017-12-16T04:17:20.874Z,5.83
2017-12-16T04:19:47.651Z,5.00
2017-12-16T04:22:14.461Z,5.73
2017-12-16T04:24:41.189Z,5.80
2017-12-16T04:27:07.978Z,5.80
2017-12-16T04:29:34.753Z,6.07
2017-12-16T04:32:01.548Z,5.00
2017-12-16T04:34:28.405Z,5.20
2017-12-16T04:36:55.161Z,6.20
2017-12-16T04:39:21.897Z,6.30
2017-12-16T04:41:48.696Z,6.03
2017-12-16T04:44:15.502Z,6.93
2017-12-16T04:46:42.308Z,6.37
2017-12-16T04:49:10.974Z,7.80
2017-12-16T04:51:37.758Z,6.63
2017-12-16T04:54:04.524Z,7.10
2017-12-16T04:56:31.308Z,7.53
2017-12-16T04:58:58.146Z,8.00
2017-12-16T05:01:24.967Z,7.20
2017-12-16T05:03:52.653Z,7.23
2017-12-16T05:06:21.805Z,8.27
2017-12-16T05:08:49.448Z,10.10
2017-12-16T05:11:18.030Z,10.27
2017-12-16T05:13:44.802Z,10.90
2017-12-16T05:16:11.612Z,8.90
2017-12-16T05:18:39.418Z,8.40
2017-12-16T05:21:06.297Z,9.30
2017-12-16T05:23:33.116Z,10.80
2017-12-16T05:25:59.994Z,11.80
2017-12-16T05:28:26.745Z,12.27
2017-12-16T05:30:53.532Z,11.27
2017-12-16T05:33:20.356Z,11.93
2017-12-16T05:35:47.116Z,10.10
2017-12-16T05:38:14.358Z,10.83
2017-12-16T05:40:41.151Z,10.50
2017-12-16T05:43:07.968Z,10.43
2017-12-16T05:45:34.753Z,10.10
2017-12-16T05:48:01.577Z,11.53
2017-12-16T05:50:28.405Z,10.07
2017-12-16T05:53:00.794Z,10.33
2017-12-16T05:55:27.636Z,11.47
2017-12-16T05:57:54.465Z,11.10
2017-12-16T06:00:21.488Z,10.80
2017-12-16T06:02:48.250Z,9.83
2017-12-16T06:05:15.026Z,10.40
2017-12-16T06:07:42.654Z,10.07
2017-12-16T06:10:13.990Z,9.00
2017-12-16T06:12:40.813Z,9.83
2017-12-16T06:15:07.596Z,9.60
2017-12-16T06:17:34.666Z,11.10
2017-12-16T06:20:01.513Z,10.20
2017-12-16T06:22:30.252Z,11.67
2017-12-16T06:24:57.045Z,11.70
2017-12-16T06:27:23.823Z,12.03
2017-12-16T06:29:50.659Z,11.73
2017-12-16T06:32:17.409Z,12.43
2017-12-16T06:34:44.174Z,11.67
2017-12-16T06:37:11.000Z,11.97
2017-12-16T06:39:37.758Z,12.20
2017-12-16T06:42:06.310Z,12.30
2017-12-16T06:44:33.234Z,12.80
2017-12-16T06:47:00.004Z,12.77
2017-12-16T06:49:26.825Z,14.03
2017-12-16T06:51:54.419Z,13.40
2017-12-16T06:54:21.982Z,14.37
2017-12-16T06:56:50.647Z,13.87
2017-12-16T06:59:20.790Z,12.93
2017-12-16T07:01:47.861Z,13.00
2017-12-16T07:04:14.668Z,13.77
2017-12-16T07:06:42.422Z,13.50
2017-12-16T07:09:13.054Z,14.10
2017-12-16T07:11:40.288Z,12.47
2017-12-16T07:16:42.046Z,12.33
2017-12-16T07:19:08.806Z,12.33
2017-12-16T07:21:36.352Z,14.33
2017-12-16T07:24:04.108Z,12.33
2017-12-16T07:26:30.946Z,12.83
2017-12-16T07:28:57.824Z,14.57
2017-12-16T07:31:28.352Z,13.07
2017-12-16T07:33:55.129Z,15.30
2017-12-16T07:36:21.965Z,13.70
2017-12-16T07:38:48.813Z,14.30
2017-12-16T07:41:15.576Z,13.83
2017-12-16T07:43:42.333Z,13.53
2017-12-16T07:46:10.016Z,15.17
2017-12-16T07:48:36.895Z,14.73
2017-12-16T07:51:03.677Z,13.80
2017-12-16T07:53:31.332Z,13.97
2017-12-16T07:55:58.076Z,13.60
2017-12-16T07:58:24.971Z,13.30
2017-12-16T08:00:51.740Z,15.30
2017-12-16T08:03:18.562Z,13.70
2017-12-16T08:05:46.204Z,12.93
2017-12-16T08:08:12.993Z,13.13
2017-12-16T08:10:39.823Z,13.30
2017-12-16T08:13:09.496Z,13.10
2017-12-16T08:15:36.330Z,12.10
2017-12-16T08:18:03.102Z,11.13
2017-12-16T08:20:29.918Z,11.73
2017-12-16T08:22:56.754Z,12.70
2017-12-16T08:25:23.583Z,11.83
2017-12-16T08:27:51.229Z,11.63
2017-12-16T08:30:17.983Z,12.57
2017-12-16T08:32:45.203Z,12.67
2017-12-16T08:35:12.026Z,11.33
2017-12-16T08:37:41.570Z,11.47
2017-12-16T08:40:08.353Z,10.50
2017-12-16T08:42:35.095Z,10.50
2017-12-16T08:45:02.010Z,10.83
2017-12-16T08:47:28.865Z,11.83
2017-12-16T08:49:55.676Z,11.63
2017-12-16T08:52:22.418Z,13.17
2017-12-16T08:54:52.149Z,13.87
2017-12-16T08:57:18.943Z,13.80
2017-12-16T08:59:46.721Z,13.80
2017-12-16T09:02:13.546Z,14.17
2017-12-16T09:04:42.060Z,12.70
2017-12-16T09:07:08.866Z,12.87
2017-12-16T09:09:35.766Z,12.90
2017-12-16T09:14:58.546Z,11.03
2017-12-16T09:17:25.610Z,13.23
2017-12-16T09:19:57.120Z,14.20
2017-12-16T09:22:24.904Z,14.10
2017-12-16T09:24:52.795Z,13.30
2017-12-16T09:27:21.643Z,13.20
2017-12-16T09:29:48.601Z,13.20
2017-12-16T09:32:15.554Z,12.53
2017-12-16T09:34:43.361Z,12.30
2017-12-16T09:37:10.237Z,12.97
2017-12-16T09:39:40.152Z,12.13
2017-12-16T09:42:07.001Z,14.03
2017-12-16T09:44:34.279Z,13.17
2017-12-16T09:47:01.151Z,15.30
2017-12-16T09:49:28.102Z,14.53
2017-12-16T09:51:55.156Z,15.07
2017-12-16T09:54:22.022Z,14.80
2017-12-16T09:56:52.559Z,13.67
2017-12-16T09:59:19.367Z,15.60
2017-12-16T10:01:46.240Z,13.90
2017-12-16T10:04:14.000Z,13.47
2017-12-16T10:06:41.022Z,15.83
2017-12-16T10:11:54.002Z,16.37
2017-12-16T10:14:20.882Z,16.67
2017-12-16T10:16:48.187Z,15.53
2017-12-16T10:19:16.059Z,13.73
2017-12-16T10:21:44.630Z,13.50
2017-12-16T10:24:11.576Z,13.33
2017-12-16T10:26:38.590Z,12.83
2017-12-16T10:29:11.043Z,12.27
2017-12-16T10:31:37.830Z,12.10
2017-12-16T10:34:08.911Z,12.37
2017-12-16T10:36:35.784Z,12.27
2017-12-16T10:39:04.388Z,12.77
2017-12-16T10:41:31.233Z,11.80
2017-12-16T10:43:58.061Z,12.30
2017-12-16T10:46:24.991Z,11.93
2017-12-16T10:48:51.814Z,11.10
2017-12-16T10:51:18.739Z,12.27
2017-12-16T10:53:45.598Z,12.20
2017-12-16T10:56:12.381Z,11.73
2017-12-16T10:58:39.269Z,14.17
2017-12-16T11:01:06.031Z,13.70
2017-12-16T11:03:33.411Z,13.33
2017-12-16T11:06:00.212Z,12.77
2017-12-16T11:08:30.103Z,12.70
2017-12-16T11:10:57.725Z,13.13
2017-12-16T11:13:26.484Z,12.40
2017-12-16T11:15:55.106Z,12.17
2017-12-16T11:18:21.979Z,12.90
2017-12-16T11:20:48.795Z,18.97
2017-12-16T11:23:17.712Z,15.40
2017-12-16T11:25:44.544Z,13.63
2017-12-16T11:28:12.238Z,12.70
2017-12-16T11:30:39.050Z,13.50
2017-12-16T11:33:07.504Z,14.60
2017-12-16T11:35:34.331Z,12.73
2017-12-16T11:38:01.177Z,13.27
2017-12-16T11:40:27.992Z,13.30
2017-12-16T11:42:55.786Z,13.90
2017-12-16T11:45:22.665Z,11.90
2017-12-16T11:47:49.427Z,10.97
2017-12-16T11:50:16.288Z,10.33
2017-12-16T11:52:43.122Z,10.83
2017-12-16T11:55:10.957Z,10.40
2017-12-16T11:57:37.807Z,10.67
2017-12-16T12:00:05.006Z,11.07
2017-12-16T12:02:33.541Z,9.73
2017-12-16T12:05:14.465Z,8.97
2017-12-16T12:07:41.341Z,9.00
2017-12-16T12:10:08.143Z,10.97
2017-12-16T12:12:36.257Z,10.43
2017-12-16T12:15:03.221Z,11.20
2017-12-16T12:17:34.058Z,11.50
2017-12-16T12:20:03.321Z,11.30
2017-12-16T12:22:31.374Z,10.83
2017-12-16T12:24:58.322Z,10.70
2017-12-16T12:27:25.219Z,10.73
2017-12-16T12:29:52.049Z,10.13
2017-12-16T12:32:19.506Z,11.07
2017-12-16T12:34:52.719Z,12.63
2017-12-16T12:37:20.544Z,11.13
2017-12-16T12:39:48.292Z,10.87
2017-12-16T12:42:15.318Z,12.43
2017-12-16T12:44:46.022Z,12.47
2017-12-16T12:47:13.052Z,13.13
2017-12-16T12:49:40.109Z,13.37
2017-12-16T12:52:10.749Z,12.77
2017-12-16T12:54:39.564Z,14.20
2017-12-16T12:57:06.512Z,13.37
2017-12-16T12:59:34.661Z,15.43
2017-12-16T13:02:01.457Z,13.80
2017-12-16T13:04:28.308Z,13.00
2017-12-16T13:06:59.124Z,14.17
2017-12-16T13:09:28.812Z,14.40
2017-12-16T13:11:56.503Z,14.20
2017-12-16T13:14:24.995Z,12.83
2017-12-16T13:16:51.915Z,13.37
2017-12-16T13:19:20.334Z,12.40
2017-12-16T13:21:47.131Z,12.37
2017-12-16T13:24:13.979Z,13.67
2017-12-16T13:26:40.920Z,13.10
2017-12-16T13:29:07.716Z,11.43
2017-12-16T13:31:35.217Z,14.10
2017-12-16T13:34:02.055Z,12.60
2017-12-16T13:36:33.363Z,12.10
2017-12-16T13:39:00.283Z,11.70
2017-12-16T13:41:27.109Z,12.80
2017-12-16T13:43:53.907Z,12.63
2017-12-16T13:46:20.753Z,13.30
2017-12-16T13:48:47.534Z,12.70
2017-12-16T13:51:14.405Z,13.00
2017-12-16T13:53:41.338Z,14.07
2017-12-16T13:56:08.160Z,13.57
2017-12-16T13:58:35.211Z,13.53
2017-12-16T14:01:02.399Z,12.23
2017-12-16T14:03:29.179Z,12.93
2017-12-16T14:05:56.009Z,12.70
2017-12-16T14:08:22.797Z,12.53
2017-12-16T14:10:49.573Z,12.83
2017-12-16T14:13:16.437Z,11.70
2017-12-16T14:15:43.384Z,12.50
2017-12-16T14:18:10.155Z,10.47
2017-12-16T14:20:36.899Z,12.07
2017-12-16T14:23:03.736Z,11.90
2017-12-16T14:25:32.201Z,11.90
2017-12-16T14:27:59.674Z,11.53
2017-12-16T14:30:27.417Z,13.50
2017-12-16T14:32:55.455Z,11.10
2017-12-16T14:35:22.307Z,11.10
2017-12-16T14:37:50.764Z,10.87
2017-12-16T14:40:19.740Z,10.90
2017-12-16T14:42:46.640Z,9.93
2017-12-16T14:45:13.422Z,8.30
2017-12-16T14:47:40.247Z,10.63
2017-12-16T14:50:07.557Z,9.67
2017-12-16T14:52:34.480Z,10.10
2017-12-16T14:55:02.002Z,11.63
2017-12-16T14:57:28.828Z,10.33
2017-12-16T14:59:55.987Z,10.93
2017-12-16T15:02:22.786Z,11.80
2017-12-16T15:04:49.570Z,11.30
2017-12-16T15:07:16.548Z,12.10
2017-12-16T15:09:43.509Z,11.90
2017-12-16T15:12:10.294Z,12.10
2017-12-16T15:14:37.155Z,12.70
2017-12-16T15:17:05.329Z,12.10
2017-12-16T15:19:32.150Z,11.40
2017-12-16T15:21:58.903Z,11.97
2017-12-16T15:24:26.776Z,11.80
2017-12-16T15:26:54.427Z,12.63
2017-12-16T15:29:21.198Z,11.67
2017-12-16T15:31:49.941Z,13.33
2017-12-16T15:34:16.768Z,13.30
2017-12-16T15:36:43.717Z,13.30
2017-12-16T15:39:12.688Z,13.53
2017-12-16T15:41:39.487Z,12.80
2017-12-16T15:44:06.384Z,13.13
2017-12-16T15:46:33.179Z,13.50
2017-12-16T15:49:00.031Z,13.37
2017-12-16T15:51:27.507Z,14.27
2017-12-16T15:53:54.319Z,13.67
2017-12-16T15:56:21.118Z,13.20
2017-12-16T15:58:47.961Z,13.30
2017-12-16T16:01:14.709Z,14.30
2017-12-16T16:03:41.694Z,12.37
2017-12-16T16:06:08.519Z,13.70
2017-12-16T16:08:35.277Z,15.00
2017-12-16T16:11:02.942Z,14.80
2017-12-16T16:13:30.890Z,15.17
2017-12-16T16:16:01.583Z,14.33
2017-12-16T16:18:28.370Z,13.90
2017-12-16T16:20:55.350Z,13.63
2017-12-16T16:23:22.285Z,13.27
2017-12-16T16:25:49.204Z,14.50
2017-12-16T16:28:16.132Z,14.53
2017-12-16T16:30:43.060Z,15.20
2017-12-16T16:33:09.932Z,13.77
2017-12-16T16:35:36.754Z,14.00
2017-12-16T16:38:03.771Z,14.40
2017-12-16T16:40:32.856Z,13.90
2017-12-16T16:42:59.700Z,14.07
2017-12-16T16:45:27.385Z,12.03
2017-12-16T16:47:54.271Z,12.90
2017-12-16T16:50:25.357Z,13.80
2017-12-16T16:52:55.062Z,13.97
2017-12-16T16:55:21.927Z,13.07
2017-12-16T16:57:50.920Z,14.70
2017-12-16T17:08:47.267Z,15.50
2017-12-16T17:11:14.177Z,15.30
2017-12-16T17:13:41.140Z,13.97
2017-12-16T17:16:07.904Z,13.93
2017-12-16T17:18:34.800Z,13.50
2017-12-16T17:21:01.786Z,14.20
2017-12-16T17:23:28.700Z,14.20
2017-12-16T17:25:55.650Z,14.23
2017-12-16T17:28:22.486Z,14.47
2017-12-16T17:30:49.320Z,13.23
2017-12-16T17:33:16.215Z,15.03
2017-12-16T17:35:43.084Z,14.80
2017-12-16T17:38:10.064Z,14.47
2017-12-16T17:43:08.874Z,15.27
2017-12-16T17:45:35.691Z,15.23
2017-12-16T17:48:02.719Z,14.40
2017-12-16T17:50:29.619Z,16.13
2017-12-16T17:52:56.411Z,14.80
2017-12-16T17:55:23.205Z,14.50
2017-12-16T17:57:50.681Z,15.10
2017-12-16T18:00:17.584Z,14.83
2017-12-16T18:02:46.272Z,16.80
2017-12-16T18:05:13.135Z,13.97
2017-12-16T18:07:39.970Z,15.67
2017-12-16T18:10:06.782Z,14.60
2017-12-16T18:12:33.843Z,13.93
2017-12-16T18:15:00.652Z,13.57
2017-12-16T18:17:27.427Z,14.20
2017-12-16T18:19:54.506Z,14.87
2017-12-16T18:22:21.512Z,14.03
2017-12-16T18:24:51.787Z,13.97
2017-12-16T18:27:18.846Z,14.33
2017-12-16T18:32:25.815Z,14.17
2017-12-16T18:37:38.656Z,15.27
2017-12-16T18:40:05.770Z,15.87
2017-12-16T18:42:32.562Z,15.63
2017-12-16T18:44:59.454Z,14.57
2017-12-16T18:47:26.326Z,15.00
2017-12-16T18:49:54.207Z,15.80
2017-12-16T18:52:21.189Z,15.03
2017-12-16T18:54:49.166Z,16.07
2017-12-16T18:57:16.095Z,15.83
2017-12-16T18:59:42.888Z,15.17
2017-12-16T19:02:09.786Z,15.73
2017-12-16T19:04:36.585Z,14.57
2017-12-16T19:07:03.373Z,15.77
2017-12-16T19:09:30.275Z,15.67
2017-12-16T19:11:57.113Z,15.13
2017-12-16T19:14:24.017Z,15.93
2017-12-16T19:16:50.873Z,14.90
2017-12-16T19:19:17.661Z,16.17
2017-12-16T19:21:44.958Z,17.07
2017-12-16T19:24:11.839Z,15.67
2017-12-16T19:26:38.832Z,16.30
2017-12-16T19:29:05.671Z,15.47
2017-12-16T19:31:32.445Z,15.93
2017-12-16T19:33:59.320Z,14.97
2017-12-16T19:36:26.191Z,14.83
2017-12-16T19:38:53.043Z,15.40
2017-12-16T19:41:19.858Z,15.57
2017-12-16T19:43:47.064Z,15.20
2017-12-16T19:46:14.034Z,15.77
2017-12-16T19:48:40.909Z,14.67
2017-12-16T19:51:07.676Z,17.40
2017-12-16T19:53:34.497Z,14.50
2017-12-16T19:56:01.609Z,15.43
2017-12-16T19:58:29.485Z,17.60
2017-12-16T20:00:56.254Z,15.20
2017-12-16T20:03:23.209Z,15.20
2017-12-16T20:05:50.053Z,15.60
2017-12-16T20:08:16.845Z,16.43
2017-12-16T20:10:43.736Z,14.83
2017-12-16T20:13:10.654Z,14.47
2017-12-16T20:15:37.574Z,15.57
2017-12-16T20:18:04.380Z,14.10
2017-12-16T20:20:31.204Z,14.53
2017-12-16T20:22:58.019Z,15.47
2017-12-16T20:25:24.801Z,14.83
2017-12-16T20:27:51.756Z,15.30
2017-12-16T20:30:18.517Z,13.63
2017-12-16T20:32:45.581Z,13.87
2017-12-16T20:35:12.409Z,15.37
2017-12-16T20:37:39.807Z,15.30
2017-12-16T20:40:07.026Z,15.67
2017-12-16T20:42:34.545Z,14.60
2017-12-16T20:45:01.357Z,15.40
2017-12-16T20:47:28.110Z,15.20
2017-12-16T20:49:54.866Z,15.77
2017-12-16T20:52:21.703Z,14.70
2017-12-16T20:54:48.495Z,14.90
2017-12-16T20:57:15.326Z,16.70
2017-12-16T20:59:42.117Z,14.37
2017-12-16T21:02:08.904Z,14.20
2017-12-16T21:04:35.759Z,13.97
2017-12-16T21:07:02.563Z,13.93
2017-12-16T21:09:29.452Z,15.13
2017-12-16T21:11:56.222Z,12.30
2017-12-16T21:14:23.152Z,12.93
2017-12-16T21:16:49.987Z,13.20
2017-12-16T21:19:16.782Z,12.30
2017-12-16T21:21:43.772Z,13.43
2017-12-16T21:24:10.554Z,12.83
2017-12-16T21:26:37.366Z,13.60
2017-12-16T21:29:04.174Z,11.90
2017-12-16T21:31:31.023Z,13.00
2017-12-16T21:33:57.785Z,12.57
2017-12-16T21:36:24.630Z,12.10
2017-12-16T21:38:51.467Z,12.70
2017-12-16T21:41:18.316Z,10.87
2017-12-16T21:43:45.058Z,11.90
2017-12-16T21:46:11.817Z,11.50
2017-12-16T21:48:38.608Z,10.80
2017-12-16T21:51:05.388Z,11.73
2017-12-16T21:53:32.191Z,10.03
2017-12-16T21:55:58.959Z,11.33
2017-12-16T21:58:26.459Z,10.67
2017-12-16T22:00:53.229Z,12.30
2017-12-16T22:03:21.126Z,9.67
2017-12-16T22:05:48.013Z,10.07
2017-12-16T22:08:14.813Z,11.53
2017-12-16T22:10:41.615Z,10.43
2017-12-16T22:13:08.367Z,10.10
2017-12-16T22:15:35.155Z,10.80
2017-12-16T22:18:01.924Z,11.80
2017-12-16T22:20:29.239Z,10.40
2017-12-16T22:22:56.405Z,9.80
2017-12-16T22:25:23.158Z,10.67
2017-12-16T22:27:49.958Z,10.23
2017-12-16T22:30:16.922Z,9.00
2017-12-16T22:32:43.724Z,9.73
2017-12-16T22:35:10.561Z,9.70
2017-12-16T22:37:37.334Z,9.90
2017-12-16T22:40:04.153Z,9.30
2017-12-16T22:42:31.076Z,9.40
2017-12-16T22:44:57.949Z,10.30
2017-12-16T22:47:24.721Z,9.20
2017-12-16T22:49:51.491Z,9.80
2017-12-16T22:52:18.281Z,9.27
2017-12-16T22:54:46.529Z,10.23
2017-12-16T22:57:13.318Z,9.57
2017-12-16T22:59:40.092Z,9.10
2017-12-16T23:02:06.892Z,9.20
2017-12-16T23:04:33.679Z,9.47
2017-12-16T23:07:00.457Z,8.83
2017-12-16T23:09:27.317Z,8.90
2017-12-16T23:11:54.121Z,9.57
2017-12-16T23:14:20.898Z,9.07
2017-12-16T23:16:47.711Z,9.40
2017-12-16T23:19:14.552Z,8.87
2017-12-16T23:21:41.375Z,8.47
2017-12-16T23:24:08.242Z,9.33
2017-12-16T23:26:35.200Z,9.10
2017-12-16T23:29:02.026Z,8.97
2017-12-16T23:31:28.808Z,9.27
2017-12-16T23:33:55.824Z,9.27
2017-12-16T23:36:22.638Z,8.47
2017-12-16T23:38:49.394Z,8.27
2017-12-16T23:41:16.195Z,7.60
2017-12-16T23:43:43.027Z,8.40
2017-12-16T23:46:09.835Z,9.00
2017-12-16T23:48:36.640Z,8.60
2017-12-16T23:51:03.368Z,8.00
2017-12-16T23:53:30.270Z,8.50
2017-12-16T23:55:57.120Z,7.23
2017-12-16T23:58:23.879Z,9.40
